Time;durP1;ratioP1;P1;durP2;ratioP2;P2;SDS_P1;SDS_P2;PMS_P1;PMS_P2;Temp;Humidity;BMP_temperature;BMP_pressure;BME280_temperature;BME280_humidity;BME280_pressure;Samples;Min_cycle;Max_cycle;Signal;HPM_P1;HPM_P2
2022/05/23 00:01:35;;;;;;;5.00;2.28;;;;;;;17.16;54.63;94186.00;5023731;28;20235;-85
2022/05/23 00:04:02;;;;;;;3.72;2.00;;;;;;;17.21;54.25;94184.88;5027893;28;20215;-80
2022/05/23 00:06:30;;;;;;;3.25;2.67;;;;;;;17.13;54.90;94185.97;5024055;28;20246;-84
2022/05/23 00:08:56;;;;;;;6.70;2.08;;;;;;;17.15;54.52;94186.38;5014831;28;20310;-80
2022/05/23 00:11:24;;;;;;;2.63;1.92;;;;;;;17.15;55.18;94194.59;5023385;28;20197;-82
2022/05/23 00:13:52;;;;;;;7.07;2.22;;;;;;;16.81;56.89;94193.94;5025642;28;20248;-80
2022/05/23 00:16:22;;;;;;;6.82;2.67;;;;;;;16.55;58.49;94194.81;5021571;28;20200;-81
2022/05/23 00:18:49;;;;;;;5.40;3.00;;;;;;;16.29;59.24;94196.50;5018637;28;20200;-82
2022/05/23 00:21:17;;;;;;;2.40;2.17;;;;;;;16.14;59.87;94189.31;5022181;28;20225;-85
2022/05/23 00:23:44;;;;;;;4.13;2.65;;;;;;;16.03;60.32;94199.34;5025679;28;20205;-85
2022/05/23 00:26:12;;;;;;;3.28;2.47;;;;;;;15.91;60.71;94185.91;5022254;28;20213;-85
2022/05/23 00:28:39;;;;;;;3.67;2.40;;;;;;;15.81;61.09;94192.03;5018413;28;20228;-86
2022/05/23 00:31:08;;;;;;;3.08;2.47;;;;;;;15.79;60.97;94188.91;5021817;28;20201;-83
2022/05/23 00:36:20;;;;;;;5.00;2.63;;;;;;;15.52;62.41;94191.63;5019813;28;20275;-86
2022/05/23 00:38:47;;;;;;;6.53;2.80;;;;;;;15.41;62.92;94181.72;5031825;28;20231;-85
2022/05/23 00:44:13;;;;;;;4.00;2.35;;;;;;;15.20;63.58;94191.16;5035848;28;20249;-85
2022/05/23 00:46:52;;;;;;;4.03;2.80;;;;;;;15.24;63.80;94196.69;5031624;28;20279;-85
2022/05/23 00:49:21;;;;;;;5.18;2.75;;;;;;;15.19;63.52;94191.53;5018019;28;20197;-86
2022/05/23 00:51:48;;;;;;;5.10;2.63;;;;;;;15.20;63.81;94201.31;5023760;28;20233;-84
2022/05/23 00:54:16;;;;;;;3.10;2.42;;;;;;;15.14;63.82;94200.06;5024875;28;20259;-86
2022/05/23 00:56:45;;;;;;;2.65;2.00;;;;;;;15.15;63.34;94207.09;5020252;28;20274;-85
2022/05/23 00:59:17;;;;;;;3.97;2.20;;;;;;;15.20;63.05;94196.63;5017928;28;20240;-85
2022/05/23 01:01:44;;;;;;;2.88;2.38;;;;;;;15.17;63.42;94207.50;5021976;28;20216;-86
2022/05/23 01:04:12;;;;;;;3.20;2.40;;;;;;;15.07;63.99;94200.72;5024628;28;20209;-85
2022/05/23 01:06:39;;;;;;;6.38;2.80;;;;;;;15.05;64.21;94191.31;5021522;28;20563;-85
2022/05/23 01:09:06;;;;;;;5.22;2.67;;;;;;;15.03;64.21;94201.84;5017738;28;20235;-84
2022/05/23 01:11:33;;;;;;;5.45;2.65;;;;;;;14.94;65.03;94199.34;5031365;28;20208;-83
2022/05/23 01:13:59;;;;;;;4.72;2.53;;;;;;;14.81;65.59;94201.47;5027658;28;20236;-84
2022/05/23 01:16:27;;;;;;;7.45;2.88;;;;;;;14.78;65.94;94201.41;5022434;28;20223;-85
2022/05/23 01:18:54;;;;;;;6.57;2.40;;;;;;;14.71;66.46;94196.63;5017677;28;20261;-85
2022/05/23 01:21:33;;;;;;;4.03;2.33;;;;;;;14.52;66.68;94186.56;5020091;28;20240;-86
2022/05/23 01:24:06;;;;;;;2.80;2.17;;;;;;;14.71;65.80;94191.19;5025459;28;20200;-83
2022/05/23 01:26:34;;;;;;;3.42;2.22;;;;;;;14.98;64.51;94183.03;5025150;28;20225;-84
2022/05/23 01:29:01;;;;;;;3.65;2.15;;;;;;;15.09;63.93;94176.59;5031602;28;20266;-84
2022/05/23 01:31:28;;;;;;;4.57;2.20;;;;;;;15.10;63.98;94180.09;5030599;28;20642;-81
2022/05/23 01:33:55;;;;;;;4.65;2.60;;;;;;;15.03;64.31;94175.34;5017839;28;20239;-85
2022/05/23 01:36:22;;;;;;;8.52;2.95;;;;;;;14.82;65.98;94181.25;5018613;28;20292;-85
2022/05/23 01:38:49;;;;;;;6.88;2.97;;;;;;;14.70;66.47;94173.25;5030923;28;20211;-85
2022/05/23 01:41:16;;;;;;;4.65;2.72;;;;;;;14.53;67.71;94174.50;5030776;28;20204;-84
2022/05/23 01:43:44;;;;;;;4.00;2.60;;;;;;;14.32;68.39;94173.34;5036759;28;20198;-85
2022/05/23 01:46:11;;;;;;;4.13;2.80;;;;;;;14.27;68.61;94170.91;5034672;28;20294;-84
2022/05/23 01:48:38;;;;;;;5.68;3.40;;;;;;;14.21;69.21;94176.63;5021973;28;20212;-84
2022/05/23 01:51:04;;;;;;;3.90;2.78;;;;;;;14.17;68.84;94178.53;5023846;28;20781;-85
2022/05/23 01:53:31;;;;;;;3.95;2.72;;;;;;;14.23;68.79;94187.97;5021466;28;20216;-84
2022/05/23 01:56:02;;;;;;;4.60;2.85;;;;;;;14.27;68.43;94179.88;5021530;28;20224;-85
2022/05/23 02:01:15;;;;;;;9.30;3.33;;;;;;;14.47;67.77;94186.09;4984703;28;20562;-85
2022/05/23 02:03:42;;;;;;;5.60;3.28;;;;;;;14.41;67.79;94176.63;5027963;28;20203;-85
2022/05/23 02:06:10;;;;;;;4.85;2.80;;;;;;;14.42;68.03;94180.94;5020791;28;20210;-85
2022/05/23 02:08:36;;;;;;;4.38;3.10;;;;;;;14.38;68.14;94182.78;5021864;28;20623;-84
2022/05/23 02:11:05;;;;;;;4.43;2.90;;;;;;;14.30;68.64;94183.81;5028430;28;20292;-85
2022/05/23 02:13:33;;;;;;;3.63;3.03;;;;;;;14.23;68.84;94182.50;5028036;28;20231;-85
2022/05/23 02:16:00;;;;;;;5.22;3.60;;;;;;;14.16;69.31;94185.13;5027904;28;20204;-85
2022/05/23 02:18:29;;;;;;;5.63;3.13;;;;;;;14.12;69.59;94186.19;5027972;28;20224;-85
2022/05/23 02:20:56;;;;;;;5.55;3.08;;;;;;;14.03;70.18;94183.72;5023086;28;20232;-83
2022/05/23 02:23:23;;;;;;;4.30;2.88;;;;;;;14.00;70.42;94173.53;5020986;28;20212;-85
2022/05/23 02:25:50;;;;;;;5.90;3.17;;;;;;;13.92;70.62;94182.72;5027349;28;20236;-84
2022/05/23 02:28:17;;;;;;;3.92;3.20;;;;;;;13.88;71.14;94187.28;5015831;28;20216;-85
2022/05/23 02:30:44;;;;;;;6.72;3.13;;;;;;;13.86;71.27;94192.31;5026761;28;20291;-86
2022/05/23 02:33:11;;;;;;;3.60;3.00;;;;;;;13.84;71.72;94183.72;5027478;28;20228;-84
2022/05/23 02:35:39;;;;;;;4.70;3.10;;;;;;;13.90;71.22;94184.22;5022425;28;20685;-85
2022/05/23 02:38:07;;;;;;;5.68;3.03;;;;;;;13.96;71.10;94183.56;5020602;28;20677;-86
2022/05/23 02:40:33;;;;;;;6.07;3.20;;;;;;;14.01;71.55;94193.38;5024815;28;20216;-85
2022/05/23 02:43:00;;;;;;;4.97;3.10;;;;;;;14.16;71.04;94182.41;5027164;28;20700;-84
2022/05/23 02:45:27;;;;;;;4.32;3.00;;;;;;;14.27;70.57;94179.88;5023386;28;20576;-85
2022/05/23 02:47:54;;;;;;;8.13;3.00;;;;;;;14.14;70.68;94181.97;5019185;28;20201;-85
2022/05/23 02:50:21;;;;;;;4.65;3.33;;;;;;;13.97;71.62;94189.78;5022662;28;20710;-85
2022/05/23 02:52:49;;;;;;;4.90;3.50;;;;;;;13.99;71.77;94193.72;5025851;28;20228;-85
2022/05/23 02:55:16;;;;;;;4.47;3.53;;;;;;;14.05;71.40;94186.88;5022448;28;20236;-84
2022/05/23 02:57:43;;;;;;;5.50;3.42;;;;;;;14.08;71.44;94186.13;5019595;28;20270;-85
2022/05/23 03:00:11;;;;;;;4.60;3.33;;;;;;;14.15;71.02;94180.81;5022560;28;20208;-84
2022/05/23 03:05:23;;;;;;;4.28;3.38;;;;;;;14.11;71.23;94185.41;5025585;28;20304;-85
2022/05/23 03:07:51;;;;;;;6.55;3.65;;;;;;;14.29;71.79;94195.84;5023288;28;20208;-85
2022/05/23 03:10:18;;;;;;;5.63;3.40;;;;;;;14.41;70.78;94182.88;5032234;28;20570;-85
2022/05/23 03:12:45;;;;;;;5.90;3.13;;;;;;;14.35;70.89;94178.06;5032408;28;20223;-85
2022/05/23 03:15:13;;;;;;;7.43;3.97;;;;;;;14.27;71.10;94176.34;5031946;28;20228;-83
2022/05/23 03:17:40;;;;;;;5.15;3.22;;;;;;;14.20;71.15;94183.25;5019648;28;20598;-84
2022/05/23 03:20:09;;;;;;;3.88;3.17;;;;;;;14.27;71.12;94176.34;5018847;28;20230;-84
2022/05/23 03:28:06;;;;;;;6.32;3.65;;;;;;;14.12;72.34;94159.75;5024860;28;20319;-84
2022/05/23 03:30:34;;;;;;;6.13;3.92;;;;;;;14.10;72.50;94159.31;5019183;28;20215;-84
2022/05/23 03:33:00;;;;;;;7.35;3.47;;;;;;;14.04;73.04;94168.94;5018810;28;20225;-84
2022/05/23 03:35:30;;;;;;;5.60;3.80;;;;;;;14.10;72.83;94178.38;5012128;28;20232;-83
2022/05/23 03:37:57;;;;;;;14.50;4.30;;;;;;;14.24;72.18;94178.63;5026842;28;20293;-83
2022/05/23 03:40:26;;;;;;;5.88;4.10;;;;;;;14.24;71.58;94167.75;5031584;28;20201;-80
2022/05/23 03:42:53;;;;;;;6.43;3.72;;;;;;;14.38;71.58;94177.31;5032880;28;20204;-84
2022/05/23 03:45:20;;;;;;;6.88;4.00;;;;;;;14.47;71.57;94164.28;4999953;28;1250744;-84
2022/05/23 03:47:47;;;;;;;6.85;3.88;;;;;;;14.46;71.55;94162.72;5029146;28;20216;-82
2022/05/23 03:50:15;;;;;;;7.78;3.80;;;;;;;14.57;72.44;94158.22;5032279;28;20204;-80
2022/05/23 03:52:42;;;;;;;6.55;4.07;;;;;;;14.71;71.40;94163.13;5031546;28;20239;-85
2022/05/23 03:55:09;;;;;;;8.30;4.83;;;;;;;14.80;70.77;94167.19;5023007;28;20453;-82
2022/05/23 03:57:37;;;;;;;5.70;4.00;;;;;;;14.90;70.41;94166.56;5025736;28;20553;-82
2022/05/23 04:00:06;;;;;;;14.32;4.20;;;;;;;15.11;69.70;94168.84;5021827;28;20283;-87
2022/05/23 04:02:33;;;;;;;8.82;4.35;;;;;;;15.31;69.68;94174.94;5019632;28;20216;-85
2022/05/23 04:05:00;;;;;;;4.57;3.65;;;;;;;15.40;69.50;94167.31;5023042;28;20225;-84
2022/05/23 04:07:27;;;;;;;7.25;4.38;;;;;;;15.48;69.15;94171.69;5025774;28;20831;-83
2022/05/23 04:09:54;;;;;;;6.20;3.80;;;;;;;16.02;67.86;94175.13;5021919;28;20224;-83
2022/05/23 04:12:21;;;;;;;5.72;4.28;;;;;;;16.28;66.16;94162.13;5019196;28;20200;-82
2022/05/23 04:14:50;;;;;;;5.72;4.53;;;;;;;15.94;67.25;94166.06;5022530;28;20232;-83
2022/05/23 04:17:16;;;;;;;8.10;4.00;;;;;;;16.15;66.53;94163.56;5015393;28;20217;-83
2022/05/23 04:19:43;;;;;;;12.10;4.72;;;;;;;17.13;64.07;94161.34;5022224;28;20205;-83
2022/05/23 04:22:10;;;;;;;7.60;4.25;;;;;;;19.25;58.16;94153.06;5025432;28;20213;-83
2022/05/23 04:24:37;;;;;;;10.73;5.10;;;;;;;19.94;54.44;94155.28;5022118;28;20960;-83
2022/05/23 04:27:05;;;;;;;9.43;5.40;;;;;;;21.23;51.62;94137.59;5018051;28;20200;-82
2022/05/23 04:29:31;;;;;;;7.90;5.25;;;;;;;22.23;48.53;94139.28;5021236;28;20544;-82
2022/05/23 04:32:00;;;;;;;6.05;4.95;;;;;;;21.96;48.52;94128.94;5025608;28;20228;-84
2022/05/23 04:37:11;;;;;;;6.30;5.10;;;;;;;19.39;54.84;94150.28;5020145;28;20846;-83
2022/05/23 04:39:38;;;;;;;8.07;5.57;;;;;;;18.72;57.49;94155.81;5031941;28;20208;-83
2022/05/23 04:42:05;;;;;;;8.73;5.40;;;;;;;18.06;59.43;94164.22;5023389;28;20281;-83
2022/05/23 04:44:32;;;;;;;10.30;5.57;;;;;;;18.05;59.78;94154.41;5043144;28;20196;-83
2022/05/23 04:49:49;;;;;;;7.00;5.25;;;;;;;18.50;58.96;94137.69;5016533;28;20196;-83
2022/05/23 04:52:22;;;;;;;6.70;3.88;;;;;;;18.35;57.48;94143.16;5029921;28;20307;-83
2022/05/23 04:54:50;;;;;;;5.28;3.05;;;;;;;18.57;56.02;94132.25;5028357;28;20311;-81
2022/05/23 04:57:17;;;;;;;3.75;2.85;;;;;;;18.79;54.94;94125.59;5030245;28;20555;-83
2022/05/23 04:59:44;;;;;;;6.07;2.40;;;;;;;19.25;53.35;94127.53;5031653;28;20204;-83
2022/05/23 05:02:12;;;;;;;4.25;1.77;;;;;;;20.65;47.98;94123.84;5020695;28;20822;-83
2022/05/23 05:04:39;;;;;;;3.13;1.80;;;;;;;22.16;45.44;94103.50;5017679;28;20224;-80
2022/05/23 05:07:06;;;;;;;2.42;1.83;;;;;;;22.26;44.48;94119.94;5026176;28;20200;-83
2022/05/23 05:09:34;;;;;;;4.00;1.92;;;;;;;21.62;45.39;94120.66;5030820;28;20290;-81
2022/05/23 05:12:01;;;;;;;4.72;2.05;;;;;;;20.73;47.34;94128.13;5017359;28;20208;-81
2022/05/23 05:14:28;;;;;;;2.00;1.70;;;;;;;20.55;47.03;94126.28;5028940;28;20208;-84
2022/05/23 05:16:55;;;;;;;1.90;1.65;;;;;;;20.31;48.65;94120.91;5022936;28;20257;-83
2022/05/23 05:19:23;;;;;;;3.03;1.73;;;;;;;20.16;48.34;94120.19;5031152;28;20601;-80
2022/05/23 05:21:50;;;;;;;2.35;1.60;;;;;;;20.45;47.31;94107.09;5017931;28;20699;-76
2022/05/23 05:24:18;;;;;;;5.20;1.73;;;;;;;21.70;45.46;94109.56;5031282;28;20228;-75
2022/05/23 05:26:45;;;;;;;3.13;2.10;;;;;;;23.25;41.94;94094.75;5028438;28;20209;-79
2022/05/23 05:29:12;;;;;;;3.08;1.73;;;;;;;24.03;39.41;94094.09;5021012;28;20212;-74
2022/05/23 05:31:45;;;;;;;2.83;1.60;;;;;;;24.99;38.24;94085.69;5027317;28;20228;-81
2022/05/23 05:34:17;;;;;;;3.45;1.98;;;;;;;25.57;36.97;94080.22;5030874;28;20196;-82
2022/05/23 05:36:50;;;;;;;2.85;1.80;;;;;;;26.31;36.61;94072.63;5030328;28;20619;-81
2022/05/23 05:39:22;;;;;;;4.97;1.80;;;;;;;26.77;34.89;94076.78;5030569;28;20258;-76
2022/05/23 05:41:54;;;;;;;1.95;1.67;;;;;;;26.38;35.73;94094.63;5030648;28;20207;-78
2022/05/23 05:44:26;;;;;;;4.90;2.15;;;;;;;25.90;35.79;94098.38;5030506;28;20192;-74
2022/05/23 05:46:59;;;;;;;2.10;1.65;;;;;;;24.92;38.21;94113.53;5028555;28;20239;-75
2022/05/23 05:49:28;;;;;;;2.72;1.88;;;;;;;23.04;41.25;94118.03;5026003;28;20311;-76
2022/05/23 05:52:00;;;;;;;3.47;1.83;;;;;;;22.13;43.02;94129.19;5030661;28;20228;-81
2022/05/23 05:54:29;;;;;;;2.65;1.73;;;;;;;21.67;43.83;94121.41;5030956;28;20196;-75
2022/05/23 05:57:00;;;;;;;5.15;2.00;;;;;;;21.04;45.86;94127.13;5028873;28;20236;-76
2022/05/23 05:59:28;;;;;;;3.58;1.40;;;;;;;21.01;45.53;94132.66;5026369;28;20193;-75
2022/05/23 06:01:55;;;;;;;2.25;1.50;;;;;;;20.83;46.22;94132.78;5021497;28;20200;-80
2022/05/23 06:04:22;;;;;;;3.05;1.80;;;;;;;20.53;46.67;94134.16;5017256;28;20204;-76
2022/05/23 06:12:18;;;;;;;2.97;1.83;;;;;;;20.02;48.32;94137.53;5027432;28;20200;-73
2022/05/23 06:14:46;;;;;;;4.35;1.92;;;;;;;20.40;47.21;94130.31;5018082;28;20208;-77
2022/05/23 06:17:12;;;;;;;3.53;2.00;;;;;;;20.46;47.29;94122.41;5020262;28;20204;-83
2022/05/23 06:19:41;;;;;;;2.47;1.58;;;;;;;21.20;46.34;94110.06;5029211;28;20209;-79
2022/05/23 06:22:08;;;;;;;2.45;1.88;;;;;;;21.84;45.05;94104.66;5026601;28;20628;-86
2022/05/23 06:24:37;;;;;;;5.80;1.92;;;;;;;21.74;44.78;94105.56;5021936;28;20632;-82
2022/05/23 06:27:06;;;;;;;2.63;1.85;;;;;;;21.79;45.85;94099.59;5030851;28;20213;-83
2022/05/23 06:29:33;;;;;;;3.28;2.00;;;;;;;23.14;42.05;94094.94;5030744;28;20220;-76
2022/05/23 06:32:01;;;;;;;2.60;1.85;;;;;;;25.10;39.33;94073.13;5016824;28;20212;-82
2022/05/23 06:34:29;;;;;;;3.95;2.22;;;;;;;25.66;38.35;94083.97;5018577;28;20286;-78
2022/05/23 06:36:55;;;;;;;4.50;2.15;;;;;;;25.74;37.89;94079.00;5023381;28;20220;-81
2022/05/23 06:39:23;;;;;;;3.05;2.00;;;;;;;25.82;36.28;94069.28;5024488;28;20205;-84
2022/05/23 06:41:51;;;;;;;2.38;1.80;;;;;;;25.52;36.70;94067.69;5034426;28;20209;-82
2022/05/23 06:44:18;;;;;;;2.50;1.83;;;;;;;25.57;37.54;94074.69;5046046;28;20640;-76
2022/05/23 06:46:46;;;;;;;4.05;2.50;;;;;;;26.35;36.25;94072.53;5031904;28;20228;-80
2022/05/23 06:49:13;;;;;;;5.05;2.42;;;;;;;26.53;34.97;94067.22;5033701;28;20255;-79
2022/05/23 06:51:41;;;;;;;3.47;2.05;;;;;;;26.78;34.61;94072.78;5021121;28;20578;-76
2022/05/23 06:54:08;;;;;;;3.78;1.90;;;;;;;25.50;35.80;94070.91;5033320;28;20634;-73
2022/05/23 06:56:35;;;;;;;4.53;2.22;;;;;;;25.86;36.27;94075.50;5033095;28;20687;-73
2022/05/23 06:59:04;;;;;;;2.47;1.60;;;;;;;26.76;33.34;94064.13;5033591;28;20224;-79
2022/05/23 07:01:30;;;;;;;4.60;2.08;;;;;;;26.74;33.88;94077.69;5033255;28;20290;-74
2022/05/23 07:03:57;;;;;;;3.08;1.90;;;;;;;26.68;34.19;94070.31;5032920;28;20283;-79
2022/05/23 07:14:41;;;;;;;3.65;2.00;;;;;;;24.68;37.66;94080.44;5021752;28;20327;-76
2022/05/23 07:17:08;;;;;;;2.38;1.88;;;;;;;24.13;38.24;94080.47;5029589;28;20305;-77
2022/05/23 07:19:36;;;;;;;3.63;2.00;;;;;;;24.82;36.57;94081.31;5022633;28;20216;-77
2022/05/23 07:22:03;;;;;;;4.18;1.90;;;;;;;24.76;36.94;94081.81;5023614;28;20205;-77
2022/05/23 07:24:31;;;;;;;4.00;1.98;;;;;;;26.09;35.37;94075.25;5017537;28;20201;-78
2022/05/23 07:26:58;;;;;;;3.85;2.03;;;;;;;26.05;35.25;94082.13;5016968;28;20208;-79
2022/05/23 07:29:25;;;;;;;4.07;2.20;;;;;;;25.86;35.71;94081.03;5023407;28;20212;-78
2022/05/23 07:31:54;;;;;;;2.60;2.00;;;;;;;24.97;36.42;94099.19;5032875;28;20625;-81
2022/05/23 07:34:21;;;;;;;4.78;1.80;;;;;;;24.93;36.84;94076.28;5031526;28;20212;-78
2022/05/23 07:36:49;;;;;;;2.65;1.63;;;;;;;25.27;36.76;94084.97;5032089;28;20227;-84
2022/05/23 07:39:16;;;;;;;2.10;1.77;;;;;;;25.00;36.61;94076.16;5032469;28;20204;-76
2022/05/23 07:41:44;;;;;;;3.58;2.03;;;;;;;24.82;36.87;94070.22;5026292;28;20694;-77
2022/05/23 07:44:13;;;;;;;2.65;2.20;;;;;;;25.39;36.86;94064.84;5036240;28;20227;-78
2022/05/23 07:46:42;;;;;;;3.70;2.15;;;;;;;25.11;37.57;94065.59;5032182;28;20235;-78
2022/05/23 07:49:11;;;;;;;3.60;1.70;;;;;;;25.31;37.28;94063.47;5031905;28;20223;-78
2022/05/23 07:51:38;;;;;;;2.92;1.70;;;;;;;24.53;36.19;94075.66;5031405;28;20199;-75
2022/05/23 08:02:19;;;;;;;3.70;2.55;;;;;;;25.86;36.27;94081.03;5031261;28;20234;-78
2022/05/23 08:04:48;;;;;;;4.93;1.95;;;;;;;24.65;37.92;94097.13;5019714;28;20255;-74
2022/05/23 08:07:15;;;;;;;2.25;1.70;;;;;;;24.86;36.92;94087.56;5018828;28;20207;-79
2022/05/23 08:09:42;;;;;;;3.10;2.20;;;;;;;25.94;37.02;94076.09;5023694;28;20211;-81
2022/05/23 08:12:11;;;;;;;7.13;2.20;;;;;;;27.00;36.57;94061.00;5025464;28;20583;-79
2022/05/23 08:14:38;;;;;;;2.80;1.98;;;;;;;26.46;35.97;94070.22;5021102;28;20686;-77
2022/05/23 08:17:05;;;;;;;3.03;1.60;;;;;;;25.21;35.79;94074.84;5018762;28;20239;-72
2022/05/23 08:19:32;;;;;;;2.95;1.75;;;;;;;25.14;35.09;94082.13;5031026;28;20228;-79
2022/05/23 08:22:01;;;;;;;3.72;1.83;;;;;;;25.53;35.36;94079.56;5028811;28;20228;-78
2022/05/23 08:24:28;;;;;;;3.10;1.70;;;;;;;25.94;34.69;94071.31;5022225;28;20200;-76
2022/05/23 08:26:55;;;;;;;6.32;1.80;;;;;;;26.35;35.39;94072.53;5018578;28;20383;-78
2022/05/23 08:29:21;;;;;;;2.30;1.30;;;;;;;26.19;34.79;94065.81;5021721;28;20217;-75
2022/05/23 08:31:49;;;;;;;2.72;1.50;;;;;;;24.38;36.33;94077.97;5028687;28;20204;-81
2022/05/23 08:34:16;;;;;;;4.35;1.90;;;;;;;24.87;37.16;94089.13;5031777;28;20239;-75
2022/05/23 08:36:43;;;;;;;2.78;1.63;;;;;;;24.58;36.01;94086.22;5031229;28;20350;-76
2022/05/23 08:39:11;;;;;;;4.70;1.70;;;;;;;24.50;35.38;94071.75;5031544;28;20604;-77
2022/05/23 08:41:40;;;;;;;2.35;1.88;;;;;;;24.67;36.88;94076.13;5031593;28;20219;-74
2022/05/23 08:44:18;;;;;;;2.35;1.80;;;;;;;24.31;36.22;94080.91;5042197;28;20203;-77
2022/05/23 08:46:51;;;;;;;2.85;1.80;;;;;;;23.44;37.86;94069.16;5018318;28;20258;-78
2022/05/23 08:49:33;;;;;;;5.18;1.80;;;;;;;23.55;38.34;94074.50;5029533;28;20231;-77
2022/05/23 08:52:07;;;;;;;2.88;1.80;;;;;;;23.53;39.04;94082.44;5021768;28;20228;-79
2022/05/23 08:54:47;;;;;;;2.33;1.63;;;;;;;24.04;38.11;94072.75;5031293;28;20196;-78
2022/05/23 08:57:25;;;;;;;5.82;2.20;;;;;;;24.51;39.67;94072.53;5018604;28;20228;-79
2022/05/23 08:59:55;;;;;;;2.95;1.67;;;;;;;25.08;37.62;94072.00;5019842;28;20204;-77
2022/05/23 09:02:33;;;;;;;2.17;1.75;;;;;;;25.55;35.66;94060.50;5027419;28;20223;-76
2022/05/23 09:05:05;;;;;;;2.88;1.73;;;;;;;25.01;35.51;94061.09;5030958;28;20200;-74
2022/05/23 09:07:38;;;;;;;4.60;1.90;;;;;;;25.37;35.22;94039.56;5030993;28;20770;-77
2022/05/23 09:10:12;;;;;;;1.95;1.60;;;;;;;25.41;35.34;94048.56;5019121;28;20246;-77
2022/05/23 09:12:39;;;;;;;1.90;1.50;;;;;;;24.47;36.50;94044.91;5024382;28;20208;-77
2022/05/23 09:15:08;;;;;;;3.15;1.58;;;;;;;24.29;35.76;94044.56;5023715;28;20655;-77
2022/05/23 09:17:39;;;;;;;6.00;1.80;;;;;;;25.11;35.94;94037.88;5014500;28;20675;-76
2022/05/23 09:20:11;;;;;;;3.00;1.77;;;;;;;24.71;35.06;94043.56;5027452;28;20263;-76
2022/05/23 09:22:45;;;;;;;3.83;1.42;;;;;;;25.16;36.30;94031.78;5030848;28;20193;-77
2022/05/23 09:25:16;;;;;;;3.25;2.13;;;;;;;25.52;34.77;94033.63;5027299;28;20216;-75
2022/05/23 09:27:47;;;;;;;2.15;1.55;;;;;;;25.15;35.90;94027.44;5011205;28;20204;-78
2022/05/23 09:30:17;;;;;;;2.50;1.70;;;;;;;25.47;35.20;94021.84;5024180;28;20624;-77
2022/05/23 09:32:52;;;;;;;4.63;1.67;;;;;;;25.21;35.01;94031.25;5022376;28;20533;-78
2022/05/23 09:35:22;;;;;;;2.05;1.40;;;;;;;25.03;35.14;94030.94;5011199;28;20227;-73
2022/05/23 09:38:05;;;;;;;2.42;1.77;;;;;;;25.34;35.38;94021.00;5023025;28;20216;-79
2022/05/23 09:40:37;;;;;;;2.42;1.60;;;;;;;25.23;36.01;94016.97;5029889;28;20275;-77
2022/05/23 09:49:08;;;;;;;3.08;1.75;;;;;;;25.40;35.09;94030.38;4981075;28;20230;-78
2022/05/23 09:51:52;;;;;;;3.75;1.77;;;;;;;25.29;35.23;94021.53;5022949;28;20769;-73
2022/05/23 09:54:22;;;;;;;4.50;1.60;;;;;;;24.71;35.51;94026.16;5029931;28;20196;-78
2022/05/23 09:56:51;;;;;;;2.05;1.60;;;;;;;25.29;35.97;94018.75;5030601;28;20319;-78
2022/05/23 09:59:26;;;;;;;4.25;1.92;;;;;;;24.49;35.58;94036.97;5029568;28;20204;-76
2022/05/23 10:01:53;;;;;;;2.35;1.83;;;;;;;23.56;37.06;94029.84;5021839;28;20721;-76
2022/05/23 10:04:25;;;;;;;4.28;2.17;;;;;;;23.87;37.38;94035.94;5030230;28;20270;-80
2022/05/23 10:06:52;;;;;;;3.55;1.63;;;;;;;24.11;37.47;94033.84;5018287;28;20636;-77
2022/05/23 10:09:26;;;;;;;2.72;1.73;;;;;;;24.19;36.42;94034.47;5027782;28;20291;-74
2022/05/23 10:11:57;;;;;;;2.67;1.65;;;;;;;24.74;37.19;94026.06;5010757;28;20217;-78
2022/05/23 10:14:26;;;;;;;3.05;1.88;;;;;;;24.74;37.28;94031.59;5018793;28;20193;-77
2022/05/23 10:16:56;;;;;;;2.05;1.67;;;;;;;25.01;36.36;94011.22;5033918;28;20598;-77
2022/05/23 10:19:31;;;;;;;3.45;1.80;;;;;;;25.13;35.63;94029.91;5031072;28;20607;-78
2022/05/23 10:22:13;;;;;;;3.33;1.60;;;;;;;24.60;35.80;94026.41;5030304;28;20196;-77
2022/05/23 10:24:48;;;;;;;3.33;1.60;;;;;;;24.50;35.95;94037.75;5026081;28;20220;-77
2022/05/23 10:27:24;;;;;;;4.40;1.85;;;;;;;24.59;36.13;94007.47;5020920;28;20223;-78
2022/05/23 10:29:55;;;;;;;2.92;1.77;;;;;;;24.70;37.38;94014.31;5032803;28;20185;-77
2022/05/23 10:32:30;;;;;;;2.60;1.60;;;;;;;24.59;37.29;94021.31;5034039;28;20204;-78
2022/05/23 10:35:10;;;;;;;2.47;1.70;;;;;;;24.45;35.77;94019.66;5030789;28;20283;-72
2022/05/23 10:37:39;;;;;;;1.65;1.40;;;;;;;24.25;35.94;94021.69;5025464;28;20215;-76
2022/05/23 10:43:03;;;;;;;1.95;1.50;;;;;;;24.80;35.84;93995.84;5032037;28;20849;-76
2022/05/23 10:45:36;;;;;;;2.28;1.63;;;;;;;24.75;35.48;93996.38;5023043;28;20286;-77
2022/05/23 10:48:36;;;;;;;1.60;1.48;;;;;;;24.64;36.67;93987.53;5033087;28;20207;-72
2022/05/23 10:51:12;;;;;;;1.70;1.50;;;;;;;25.04;36.34;93993.69;5028882;28;20192;-78
2022/05/23 10:53:52;;;;;;;1.70;1.60;;;;;;;25.01;35.33;93980.72;5023384;28;20228;-73
2022/05/23 10:56:36;;;;;;;1.23;1.13;;;;;;;25.31;36.02;93983.06;5031756;28;20224;-78
2022/05/23 10:59:09;;;;;;;1.80;1.40;;;;;;;24.90;34.45;93982.94;5031882;28;20192;-77
2022/05/23 11:01:45;;;;;;;1.35;1.25;;;;;;;24.53;35.28;93982.28;5033381;28;20224;-78
2022/05/23 11:04:26;;;;;;;1.40;1.30;;;;;;;24.49;34.85;93987.09;5033340;28;20200;-76
2022/05/23 11:07:21;;;;;;;2.17;1.40;;;;;;;24.60;35.97;93987.63;5033531;28;20208;-77
2022/05/23 11:09:56;;;;;;;2.40;1.60;;;;;;;24.80;35.08;93991.09;5029904;28;20259;-77
2022/05/23 11:12:28;;;;;;;2.83;1.50;;;;;;;24.76;33.94;93984.84;5029460;28;20205;-78
2022/05/23 11:15:11;;;;;;;2.47;1.48;;;;;;;24.66;34.37;93980.38;5024113;28;20690;-77
2022/05/23 11:17:45;;;;;;;1.40;1.30;;;;;;;24.55;34.55;93979.84;5032815;28;20252;-79
2022/05/23 11:20:20;;;;;;;2.20;1.10;;;;;;;24.72;34.20;93977.88;5032203;28;20242;-78
2022/05/23 11:22:54;;;;;;;1.42;1.33;;;;;;;24.42;34.07;93976.22;5023662;28;20236;-77
2022/05/23 11:25:29;;;;;;;1.60;1.33;;;;;;;24.39;34.81;93977.06;5025557;28;20247;-72
2022/05/23 11:33:46;;;;;;;3.30;1.52;;;;;;;24.71;33.98;93979.06;5018971;28;20208;-72
2022/05/23 11:36:23;;;;;;;4.95;1.83;;;;;;;24.72;34.61;93978.66;5032071;28;20200;-76
2022/05/23 11:38:52;;;;;;;7.90;1.80;;;;;;;24.92;34.79;93977.75;5031241;28;20561;-79
2022/05/23 11:41:34;;;;;;;3.72;1.65;;;;;;;25.43;34.16;93965.69;5028691;28;20220;-76
2022/05/23 11:44:16;;;;;;;2.95;1.75;;;;;;;24.99;33.78;93958.19;5032867;28;20629;-76
2022/05/23 11:47:17;;;;;;;2.40;1.23;;;;;;;24.97;34.80;93988.34;5032410;28;20255;-78
2022/05/23 11:49:48;;;;;;;2.60;1.67;;;;;;;24.72;35.11;93984.19;5030993;28;20196;-79
2022/05/23 11:52:27;;;;;;;1.30;1.20;;;;;;;24.50;35.20;93988.66;5031694;28;20608;-78
2022/05/23 11:54:54;;;;;;;3.25;1.63;;;;;;;24.72;34.98;93973.09;5019070;28;20228;-79
2022/05/23 11:57:39;;;;;;;2.42;1.65;;;;;;;25.01;36.07;93984.25;5031944;28;20702;-78
2022/05/23 12:00:32;;;;;;;3.05;1.45;;;;;;;24.65;34.22;93984.34;5031765;28;20577;-77
2022/05/23 12:03:11;;;;;;;5.30;1.60;;;;;;;24.64;34.50;93988.31;5018879;28;20231;-76
2022/05/23 12:05:39;;;;;;;3.65;1.63;;;;;;;24.85;33.82;93987.03;5018787;28;20200;-78
2022/05/23 12:08:26;;;;;;;5.95;1.42;;;;;;;25.15;34.46;93978.31;5031421;28;20236;-78
2022/05/23 12:11:00;;;;;;;4.28;1.67;;;;;;;25.07;33.83;93988.06;5029420;28;20291;-78
2022/05/23 12:13:40;;;;;;;2.60;1.35;;;;;;;25.00;33.82;93976.38;5019624;28;20298;-72
2022/05/23 12:16:40;;;;;;;2.25;1.60;;;;;;;25.01;33.19;93972.41;5020151;28;20600;-73
2022/05/23 12:19:33;;;;;;;1.45;1.20;;;;;;;25.42;32.99;93977.97;5031426;28;20251;-76
2022/05/23 12:22:26;;;;;;;4.30;1.98;;;;;;;25.87;32.79;93971.59;5015458;28;20224;-78
2022/05/23 12:25:21;;;;;;;2.92;1.48;;;;;;;25.29;32.82;93977.16;5018810;28;20224;-76
2022/05/23 12:28:20;;;;;;;1.88;1.60;;;;;;;25.62;33.46;93966.00;5019704;28;20211;-77
2022/05/23 12:31:12;;;;;;;2.80;1.60;;;;;;;25.44;33.60;93956.13;4959120;28;20202;-78
2022/05/23 12:33:44;;;;;;;1.38;1.27;;;;;;;25.61;34.08;93959.66;5020903;28;20279;-74
2022/05/23 12:36:14;;;;;;;5.55;1.83;;;;;;;25.52;33.69;93961.50;5031569;28;20307;-78
2022/05/23 12:39:19;;;;;;;2.22;1.73;;;;;;;25.46;33.78;93970.34;5019487;28;20223;-76
2022/05/23 12:42:04;;;;;;;3.45;1.50;;;;;;;25.47;33.58;93963.59;5031602;28;20220;-80
2022/05/23 12:45:08;;;;;;;2.92;1.50;;;;;;;25.57;33.58;93958.16;5043522;28;20249;-76
2022/05/23 12:48:01;;;;;;;1.90;1.60;;;;;;;25.45;33.40;93968.78;5031459;28;20654;-77
2022/05/23 12:50:44;;;;;;;2.22;1.60;;;;;;;25.18;32.98;93954.50;5020201;28;20575;-70